createdAt,value
2023-08-17T00:01:20.699Z,100.00
2023-08-17T00:03:27.862Z,100.00
2023-08-17T00:05:37.589Z,100.00
2023-08-17T00:07:45.343Z,100.00
2023-08-17T00:09:50.446Z,100.00
2023-08-17T00:11:55.551Z,100.00
2023-08-17T00:14:04.453Z,100.00
2023-08-17T00:16:09.701Z,100.00
2023-08-17T00:18:14.823Z,100.00
2023-08-17T00:20:20.019Z,100.00
2023-08-17T00:22:25.590Z,100.00
2023-08-17T00:24:36.288Z,100.00
2023-08-17T00:26:42.072Z,100.00
2023-08-17T00:28:47.490Z,100.00
2023-08-17T00:30:52.593Z,100.00
2023-08-17T00:33:14.003Z,100.00
2023-08-17T00:35:29.467Z,100.00
2023-08-17T00:37:49.213Z,100.00
2023-08-17T00:40:07.219Z,100.00
2023-08-17T00:42:23.430Z,100.00
2023-08-17T00:44:32.660Z,100.00
2023-08-17T00:49:07.107Z,100.00
2023-08-17T00:51:17.616Z,100.00
2023-08-17T00:53:24.025Z,100.00
2023-08-17T00:55:32.816Z,100.00
2023-08-17T00:57:39.011Z,100.00
2023-08-17T00:59:49.777Z,100.00
2023-08-17T01:02:00.867Z,100.00
2023-08-17T01:04:05.565Z,100.00
2023-08-17T01:06:10.603Z,100.00
2023-08-17T01:08:12.748Z,100.00
2023-08-17T01:10:18.403Z,100.00
2023-08-17T01:12:35.592Z,100.00
2023-08-17T01:14:47.654Z,100.00
2023-08-17T01:17:04.907Z,100.00
2023-08-17T01:19:12.881Z,100.00
2023-08-17T01:21:21.092Z,100.00
2023-08-17T01:23:28.641Z,100.00
2023-08-17T01:25:37.541Z,100.00
2023-08-17T01:27:45.184Z,100.00
2023-08-17T01:29:50.362Z,100.00
2023-08-17T01:32:04.419Z,100.00
2023-08-17T01:34:14.631Z,100.00
2023-08-17T01:36:26.446Z,100.00
2023-08-17T01:38:35.855Z,100.00
2023-08-17T01:40:38.686Z,100.00
2023-08-17T01:42:45.025Z,100.00
2023-08-17T01:44:50.281Z,100.00
2023-08-17T01:46:55.430Z,100.00
2023-08-17T01:48:59.041Z,100.00
2023-08-17T01:51:03.987Z,100.00
2023-08-17T01:53:09.692Z,100.00
2023-08-17T01:55:17.258Z,100.00
2023-08-17T01:57:22.847Z,100.00
2023-08-17T01:59:30.285Z,100.00
2023-08-17T02:01:35.397Z,100.00
2023-08-17T02:03:42.583Z,100.00
2023-08-17T02:05:49.007Z,100.00
2023-08-17T02:07:54.194Z,100.00
2023-08-17T02:09:58.965Z,100.00
2023-08-17T02:12:09.480Z,100.00
2023-08-17T02:14:14.482Z,100.00
2023-08-17T02:16:16.557Z,100.00
2023-08-17T02:18:21.993Z,100.00
2023-08-17T02:20:26.819Z,100.00
2023-08-17T02:22:31.757Z,100.00
2023-08-17T02:24:36.781Z,100.00
2023-08-17T02:26:42.267Z,100.00
2023-08-17T02:28:49.890Z,100.00
2023-08-17T02:30:59.481Z,100.00
2023-08-17T02:33:07.164Z,100.00
2023-08-17T02:35:12.756Z,100.00
2023-08-17T02:37:19.691Z,100.00
2023-08-17T02:39:24.637Z,100.00
2023-08-17T02:41:31.612Z,100.00
2023-08-17T02:43:34.085Z,100.00
2023-08-17T02:45:41.654Z,100.00
2023-08-17T02:47:46.626Z,100.00
2023-08-17T02:49:54.565Z,100.00
2023-08-17T02:51:59.480Z,100.00
2023-08-17T02:54:01.797Z,100.00
2023-08-17T02:56:07.429Z,100.00
2023-08-17T02:58:12.977Z,100.00
2023-08-17T03:00:18.881Z,100.00
2023-08-17T03:02:27.089Z,100.00
2023-08-17T03:04:32.074Z,100.00
2023-08-17T03:06:36.859Z,100.00
2023-08-17T03:08:41.856Z,100.00
2023-08-17T03:10:50.201Z,100.00
2023-08-17T03:12:57.013Z,100.00
2023-08-17T03:15:01.898Z,100.00
2023-08-17T03:17:08.046Z,100.00
2023-08-17T03:19:16.491Z,100.00
2023-08-17T03:21:23.198Z,100.00
2023-08-17T03:23:28.142Z,100.00
2023-08-17T03:25:35.670Z,100.00
2023-08-17T03:27:42.870Z,100.00
2023-08-17T03:29:47.873Z,100.00
2023-08-17T03:31:55.082Z,100.00
2023-08-17T03:34:02.438Z,100.00
2023-08-17T03:36:10.791Z,100.00
2023-08-17T03:38:13.727Z,100.00
2023-08-17T03:40:19.748Z,100.00
2023-08-17T03:42:25.508Z,100.00
2023-08-17T03:44:30.223Z,100.00
2023-08-17T03:46:35.527Z,100.00
2023-08-17T03:48:40.466Z,100.00
2023-08-17T03:50:45.396Z,100.00
2023-08-17T03:52:53.664Z,100.00
2023-08-17T03:54:58.776Z,100.00
2023-08-17T03:57:04.980Z,100.00
2023-08-17T03:59:10.266Z,100.00
2023-08-17T04:01:15.283Z,100.00
2023-08-17T04:03:23.503Z,100.00
2023-08-17T04:05:28.670Z,100.00
2023-08-17T04:07:33.654Z,100.00
2023-08-17T04:09:40.927Z,100.00
2023-08-17T04:11:45.979Z,100.00
2023-08-17T04:13:50.688Z,100.00
2023-08-17T04:15:58.545Z,100.00
2023-08-17T04:18:03.758Z,100.00
2023-08-17T04:20:10.310Z,100.00
2023-08-17T04:22:15.291Z,100.00
2023-08-17T04:24:20.062Z,100.00
2023-08-17T04:26:28.889Z,100.00
2023-08-17T04:28:33.902Z,100.00
2023-08-17T04:30:38.770Z,100.00
2023-08-17T04:32:44.132Z,100.00
2023-08-17T04:34:49.565Z,100.00
2023-08-17T04:36:54.565Z,100.00
2023-08-17T04:38:59.360Z,100.00
2023-08-17T04:41:04.603Z,100.00
2023-08-17T04:43:14.409Z,100.00
2023-08-17T04:45:19.323Z,100.00
2023-08-17T04:47:26.640Z,100.00
2023-08-17T04:49:32.420Z,100.00
2023-08-17T04:51:37.345Z,100.00
2023-08-17T04:53:42.469Z,100.00
2023-08-17T04:55:49.837Z,100.00
2023-08-17T04:57:54.958Z,100.00
2023-08-17T05:00:02.630Z,100.00
2023-08-17T05:02:08.573Z,100.00
2023-08-17T05:04:13.627Z,100.00
2023-08-17T05:06:18.892Z,100.00
2023-08-17T05:08:23.433Z,100.00
2023-08-17T05:10:28.364Z,100.00
2023-08-17T05:12:33.702Z,100.00
2023-08-17T05:14:39.691Z,100.00
2023-08-17T05:16:47.226Z,100.00
2023-08-17T05:18:52.428Z,100.00
2023-08-17T05:20:58.209Z,100.00
2023-08-17T05:23:03.317Z,100.00
2023-08-17T05:25:09.853Z,100.00
2023-08-17T05:27:16.725Z,100.00
2023-08-17T05:29:23.642Z,100.00
2023-08-17T05:31:28.725Z,100.00
2023-08-17T05:33:36.989Z,100.00
2023-08-17T05:35:43.981Z,100.00
2023-08-17T05:37:49.106Z,100.00
2023-08-17T05:39:54.776Z,100.00
2023-08-17T05:41:57.228Z,100.00
2023-08-17T05:44:02.175Z,100.00
2023-08-17T05:46:08.394Z,100.00
2023-08-17T05:48:14.356Z,100.00
2023-08-17T05:50:22.248Z,100.00
2023-08-17T05:52:27.432Z,100.00
2023-08-17T05:54:34.697Z,100.00
2023-08-17T05:56:45.794Z,100.00
2023-08-17T05:58:50.794Z,100.00
2023-08-17T06:00:55.571Z,100.00
2023-08-17T06:03:02.744Z,100.00
2023-08-17T06:05:08.888Z,100.00
2023-08-17T06:07:16.391Z,100.00
2023-08-17T06:09:21.402Z,100.00
2023-08-17T06:11:26.115Z,100.00
2023-08-17T06:13:31.075Z,100.00
2023-08-17T06:15:35.815Z,100.00
2023-08-17T06:17:40.756Z,100.00
2023-08-17T06:19:45.422Z,100.00
2023-08-17T06:21:50.406Z,100.00
2023-08-17T06:23:57.951Z,100.00
2023-08-17T06:26:04.374Z,100.00
2023-08-17T06:28:07.463Z,100.00
2023-08-17T06:30:14.554Z,100.00
2023-08-17T06:32:19.443Z,100.00
2023-08-17T06:34:24.758Z,100.00
2023-08-17T06:36:29.792Z,100.00
2023-08-17T06:38:34.729Z,100.00
2023-08-17T06:40:42.355Z,100.00
2023-08-17T06:42:47.331Z,100.00
2023-08-17T06:44:52.112Z,100.00
2023-08-17T06:46:58.181Z,100.00
2023-08-17T06:49:04.106Z,100.00
2023-08-17T06:51:09.072Z,100.00
2023-08-17T06:53:13.753Z,100.00
2023-08-17T06:55:18.840Z,100.00
2023-08-17T06:57:26.915Z,100.00
2023-08-17T06:59:32.047Z,100.00
2023-08-17T07:01:37.577Z,100.00
2023-08-17T07:03:42.767Z,100.00
2023-08-17T07:05:49.352Z,100.00
2023-08-17T07:07:54.370Z,100.00
2023-08-17T07:10:01.958Z,100.00
2023-08-17T07:12:07.707Z,100.00
2023-08-17T07:14:15.181Z,100.00
2023-08-17T07:16:20.427Z,100.00
2023-08-17T07:18:25.442Z,100.00
2023-08-17T07:20:27.668Z,100.00
2023-08-17T07:22:32.980Z,100.00
2023-08-17T07:24:38.066Z,100.00
2023-08-17T07:26:43.283Z,100.00
2023-08-17T07:28:48.364Z,100.00
2023-08-17T07:30:55.849Z,100.00
2023-08-17T07:33:00.980Z,100.00
2023-08-17T07:35:06.143Z,100.00
2023-08-17T07:37:11.839Z,100.00
2023-08-17T07:39:19.914Z,100.00
2023-08-17T07:41:24.994Z,100.00
2023-08-17T07:43:29.690Z,100.00
2023-08-17T07:45:34.610Z,100.00
2023-08-17T07:47:45.266Z,100.00
2023-08-17T07:49:50.274Z,100.00
2023-08-17T07:51:55.269Z,100.00
2023-08-17T07:54:00.166Z,100.00
2023-08-17T07:56:05.222Z,100.00
2023-08-17T07:58:10.574Z,100.00
2023-08-17T08:00:16.937Z,100.00
2023-08-17T08:02:21.977Z,100.00
2023-08-17T08:04:29.557Z,100.00
2023-08-17T08:06:34.935Z,100.00
2023-08-17T08:08:40.174Z,100.00
2023-08-17T08:10:45.296Z,100.00
2023-08-17T08:12:47.674Z,100.00
2023-08-17T08:14:52.885Z,100.00
2023-08-17T08:16:57.966Z,100.00
2023-08-17T08:19:02.990Z,100.00
2023-08-17T08:21:10.549Z,100.00
2023-08-17T08:23:16.606Z,100.00
2023-08-17T08:25:21.735Z,100.00
2023-08-17T08:27:26.777Z,100.00
2023-08-17T08:29:31.852Z,100.00
2023-08-17T08:31:36.951Z,100.00
2023-08-17T08:33:42.204Z,100.00
2023-08-17T08:35:47.245Z,100.00
2023-08-17T08:37:56.831Z,100.00
2023-08-17T08:40:02.124Z,100.00
2023-08-17T08:42:07.964Z,100.00
2023-08-17T08:44:13.178Z,100.00
2023-08-17T08:46:20.933Z,100.00
2023-08-17T08:48:30.139Z,100.00
2023-08-17T08:50:36.949Z,100.00
2023-08-17T08:52:48.798Z,100.00
2023-08-17T08:54:58.955Z,100.00
2023-08-17T08:57:07.788Z,100.00
2023-08-17T08:59:14.479Z,100.00
2023-08-17T09:01:20.678Z,100.00
2023-08-17T09:03:26.498Z,100.00
2023-08-17T09:05:32.854Z,100.00
2023-08-17T09:07:37.006Z,100.00
2023-08-17T09:09:42.265Z,100.00
2023-08-17T09:11:49.784Z,100.00
2023-08-17T09:13:56.556Z,100.00
2023-08-17T09:16:07.533Z,100.00
2023-08-17T09:18:14.290Z,100.00
2023-08-17T09:22:54.282Z,100.00
2023-08-17T09:25:02.853Z,100.00
2023-08-17T09:27:16.181Z,100.00
2023-08-17T09:29:22.690Z,100.00
2023-08-17T09:31:28.463Z,100.00
2023-08-17T09:33:34.557Z,100.00
2023-08-17T09:35:37.208Z,100.00
2023-08-17T09:37:42.182Z,100.00
2023-08-17T09:39:47.242Z,100.00
2023-08-17T09:41:52.292Z,100.00
2023-08-17T09:44:01.197Z,100.00
2023-08-17T09:46:09.009Z,100.00
2023-08-17T09:48:14.065Z,100.00
2023-08-17T09:50:19.021Z,100.00
2023-08-17T09:52:26.342Z,100.00
2023-08-17T09:54:34.287Z,100.00
2023-08-17T09:56:40.686Z,100.00
2023-08-17T09:58:45.614Z,100.00
2023-08-17T10:00:54.581Z,100.00
2023-08-17T10:03:08.218Z,100.00
2023-08-17T10:05:16.035Z,100.00
2023-08-17T10:07:23.333Z,100.00
2023-08-17T10:09:43.979Z,100.00
2023-08-17T10:14:13.270Z,100.00
2023-08-17T10:16:30.747Z,100.00
2023-08-17T10:18:46.288Z,100.00
2023-08-17T10:21:01.156Z,100.00
2023-08-17T10:23:16.027Z,100.00
2023-08-17T10:25:22.173Z,100.00
2023-08-17T10:27:27.369Z,100.00
2023-08-17T10:29:33.674Z,100.00
2023-08-17T10:31:42.261Z,100.00
2023-08-17T10:33:49.853Z,100.00
2023-08-17T10:35:55.898Z,100.00
2023-08-17T10:37:59.564Z,100.00
2023-08-17T10:40:04.682Z,100.00
2023-08-17T10:42:09.968Z,100.00
2023-08-17T10:44:15.054Z,100.00
2023-08-17T10:46:20.878Z,100.00
2023-08-17T10:48:37.374Z,100.00
2023-08-17T10:50:43.717Z,100.00
2023-08-17T10:52:49.264Z,100.00
2023-08-17T10:54:54.348Z,100.00
2023-08-17T10:56:59.536Z,100.00
2023-08-17T10:59:05.540Z,100.00
2023-08-17T11:01:08.539Z,100.00
2023-08-17T11:03:21.905Z,100.00
2023-08-17T11:05:44.992Z,100.00
2023-08-17T11:07:50.593Z,100.00
2023-08-17T11:09:57.869Z,100.00
2023-08-17T11:12:04.425Z,100.00
2023-08-17T11:14:09.513Z,100.00
2023-08-17T11:16:18.488Z,100.00
2023-08-17T11:18:24.052Z,100.00
2023-08-17T11:20:26.425Z,100.00
2023-08-17T11:22:34.980Z,100.00
2023-08-17T11:24:43.887Z,100.00
2023-08-17T11:26:50.579Z,100.00
2023-08-17T11:28:55.951Z,100.00
2023-08-17T11:31:01.716Z,100.00
2023-08-17T11:33:07.041Z,100.00
2023-08-17T11:35:14.681Z,100.00
2023-08-17T11:37:21.894Z,100.00
2023-08-17T11:39:29.775Z,100.00
2023-08-17T11:41:37.858Z,100.00
2023-08-17T11:43:42.793Z,100.00
2023-08-17T11:45:47.905Z,100.00
2023-08-17T11:47:56.103Z,100.00
2023-08-17T11:50:18.632Z,100.00
2023-08-17T11:52:26.112Z,100.00
2023-08-17T11:54:36.876Z,100.00
2023-08-17T11:56:42.906Z,100.00
2023-08-17T11:58:49.775Z,100.00
2023-08-17T12:00:55.335Z,100.00
2023-08-17T12:03:01.674Z,100.00
2023-08-17T12:05:08.752Z,100.00
2023-08-17T12:07:13.900Z,100.00
2023-08-17T12:09:18.939Z,100.00
2023-08-17T12:11:28.237Z,100.00
2023-08-17T12:13:34.705Z,100.00
2023-08-17T12:15:40.592Z,100.00
2023-08-17T12:17:50.645Z,100.00
2023-08-17T12:19:59.035Z,100.00
2023-08-17T12:22:04.117Z,100.00
2023-08-17T12:24:09.831Z,100.00
2023-08-17T12:26:21.826Z,100.00
2023-08-17T12:28:29.764Z,100.00
2023-08-17T12:30:37.538Z,100.00
2023-08-17T12:32:42.471Z,100.00
2023-08-17T12:34:47.623Z,100.00
2023-08-17T12:36:53.460Z,96.51
2023-08-17T12:38:59.086Z,98.23
2023-08-17T12:41:07.029Z,99.68
2023-08-17T12:43:15.395Z,100.00
2023-08-17T12:47:35.547Z,100.00
2023-08-17T12:49:40.833Z,100.00
2023-08-17T12:51:46.625Z,100.00
2023-08-17T12:53:51.642Z,100.00
2023-08-17T12:55:56.748Z,100.00
2023-08-17T12:58:02.252Z,100.00
2023-08-17T13:00:08.931Z,98.38
2023-08-17T13:02:16.532Z,97.77
2023-08-17T13:04:21.470Z,98.41
2023-08-17T13:06:36.426Z,99.60
2023-08-17T13:08:49.062Z,99.64
2023-08-17T13:10:53.985Z,97.65
2023-08-17T13:13:00.712Z,98.27
2023-08-17T13:15:05.864Z,96.17
2023-08-17T13:17:10.898Z,98.41
2023-08-17T13:19:15.898Z,100.00
2023-08-17T13:21:21.561Z,100.00
2023-08-17T13:23:26.578Z,98.17
2023-08-17T13:25:31.586Z,97.86
2023-08-17T13:27:37.102Z,97.22
2023-08-17T13:29:42.340Z,95.07
2023-08-17T13:31:47.274Z,94.94
2023-08-17T13:33:52.371Z,95.60
2023-08-17T13:36:00.450Z,95.79
2023-08-17T13:38:06.663Z,95.83
2023-08-17T13:40:13.036Z,95.99
2023-08-17T13:42:18.080Z,94.82
2023-08-17T13:44:23.095Z,93.25
2023-08-17T13:46:28.575Z,93.44
2023-08-17T13:48:33.595Z,92.99
2023-08-17T13:50:41.326Z,93.72
2023-08-17T13:52:49.074Z,93.90
2023-08-17T13:54:54.578Z,93.00
2023-08-17T13:56:59.615Z,93.57
2023-08-17T13:59:03.785Z,93.21
2023-08-17T14:01:08.810Z,93.52
2023-08-17T14:03:14.055Z,94.06
2023-08-17T14:05:19.244Z,94.95
2023-08-17T14:07:21.563Z,94.72
2023-08-17T14:09:29.247Z,94.73
2023-08-17T14:11:34.444Z,95.18
2023-08-17T14:13:40.436Z,96.16
2023-08-17T14:15:45.892Z,95.87
2023-08-17T14:17:51.194Z,97.34
2023-08-17T14:19:56.287Z,96.79
2023-08-17T14:22:02.198Z,96.66
2023-08-17T14:24:09.429Z,97.90
2023-08-17T14:26:17.065Z,98.77
2023-08-17T14:28:22.066Z,99.87
2023-08-17T14:30:27.550Z,99.55
2023-08-17T14:32:35.333Z,99.85
2023-08-17T14:34:40.945Z,100.00
2023-08-17T14:36:47.634Z,100.00
2023-08-17T14:38:52.951Z,100.00
2023-08-17T14:40:57.885Z,100.00
2023-08-17T14:43:02.920Z,100.00
2023-08-17T14:45:08.747Z,100.00
2023-08-17T14:47:15.051Z,100.00
2023-08-17T14:49:27.350Z,100.00
2023-08-17T14:51:33.178Z,100.00
2023-08-17T14:53:39.915Z,100.00
2023-08-17T14:55:50.024Z,100.00
2023-08-17T14:57:55.446Z,100.00
2023-08-17T15:00:03.763Z,100.00
2023-08-17T15:02:10.664Z,100.00
2023-08-17T15:04:15.782Z,100.00
2023-08-17T15:06:34.266Z,100.00
2023-08-17T15:08:40.286Z,100.00
2023-08-17T15:10:45.268Z,100.00
2023-08-17T15:12:50.390Z,100.00
2023-08-17T15:14:55.370Z,100.00
2023-08-17T15:17:04.007Z,100.00
2023-08-17T15:19:08.917Z,100.00
2023-08-17T15:21:13.884Z,100.00
2023-08-17T15:23:19.255Z,100.00
2023-08-17T15:25:24.342Z,100.00
2023-08-17T15:27:29.667Z,100.00
2023-08-17T15:29:34.924Z,100.00
2023-08-17T15:31:40.111Z,100.00
2023-08-17T15:33:47.775Z,100.00
2023-08-17T15:35:52.862Z,100.00
2023-08-17T15:37:55.350Z,100.00
2023-08-17T15:40:00.347Z,100.00
2023-08-17T15:42:02.853Z,100.00
2023-08-17T15:44:08.292Z,100.00
2023-08-17T15:46:14.782Z,100.00
2023-08-17T15:48:17.291Z,100.00
2023-08-17T15:50:24.878Z,100.00
2023-08-17T15:52:29.808Z,100.00
2023-08-17T15:54:36.736Z,100.00
2023-08-17T15:56:43.231Z,100.00
2023-08-17T15:58:48.200Z,100.00
2023-08-17T16:00:52.896Z,100.00
2023-08-17T16:02:57.945Z,100.00
2023-08-17T16:05:02.981Z,100.00
2023-08-17T16:07:10.687Z,100.00
2023-08-17T16:09:15.604Z,100.00
2023-08-17T16:11:20.584Z,100.00
2023-08-17T16:13:25.281Z,100.00
2023-08-17T16:15:30.294Z,100.00
2023-08-17T16:17:32.717Z,100.00
2023-08-17T16:19:37.717Z,100.00
2023-08-17T16:21:42.435Z,100.00
2023-08-17T16:23:49.955Z,100.00
2023-08-17T16:25:55.029Z,100.00
2023-08-17T16:27:59.773Z,100.00
2023-08-17T16:30:05.880Z,100.00
2023-08-17T16:32:10.103Z,100.00
2023-08-17T16:34:19.869Z,100.00
2023-08-17T16:36:25.344Z,100.00
2023-08-17T16:38:31.058Z,100.00
2023-08-17T16:40:39.483Z,100.00
2023-08-17T16:42:44.471Z,100.00
2023-08-17T16:44:49.320Z,100.00
2023-08-17T16:46:51.697Z,100.00
2023-08-17T16:48:56.756Z,100.00
2023-08-17T16:51:01.482Z,100.00
2023-08-17T16:53:06.605Z,100.00
2023-08-17T16:55:11.692Z,100.00
2023-08-17T16:57:19.393Z,100.00
2023-08-17T16:59:22.040Z,100.00
2023-08-17T17:01:27.721Z,100.00
2023-08-17T17:03:32.735Z,100.00
2023-08-17T17:05:37.696Z,100.00
2023-08-17T17:07:42.757Z,100.00
2023-08-17T17:09:47.828Z,100.00
2023-08-17T17:11:53.202Z,100.00
2023-08-17T17:14:00.845Z,100.00
2023-08-17T17:16:06.357Z,100.00
2023-08-17T17:18:11.516Z,100.00
2023-08-17T17:20:16.858Z,100.00
2023-08-17T17:22:22.420Z,100.00
2023-08-17T17:24:27.401Z,100.00
2023-08-17T17:26:29.573Z,100.00
2023-08-17T17:28:34.624Z,100.00
2023-08-17T17:30:42.040Z,100.00
2023-08-17T17:32:47.070Z,100.00
2023-08-17T17:34:52.203Z,100.00
2023-08-17T17:36:56.941Z,100.00
2023-08-17T17:39:01.938Z,100.00
2023-08-17T17:41:06.763Z,100.00
2023-08-17T17:43:13.556Z,100.00
2023-08-17T17:45:19.617Z,100.00
2023-08-17T17:47:32.893Z,100.00
2023-08-17T17:49:41.088Z,100.00
2023-08-17T17:51:48.655Z,100.00
2023-08-17T17:53:54.972Z,100.00
2023-08-17T17:56:00.521Z,100.00
2023-08-17T17:58:07.484Z,100.00
2023-08-17T18:00:14.932Z,100.00
2023-08-17T18:02:23.558Z,100.00
2023-08-17T18:04:33.372Z,100.00
2023-08-17T18:06:44.698Z,100.00
2023-08-17T18:08:52.126Z,100.00
2023-08-17T18:10:57.737Z,100.00
2023-08-17T18:13:02.872Z,100.00
2023-08-17T18:15:08.335Z,100.00
2023-08-17T18:17:13.603Z,100.00
2023-08-17T18:19:19.832Z,100.00
2023-08-17T18:21:31.494Z,100.00
2023-08-17T18:23:37.343Z,100.00
2023-08-17T18:25:48.289Z,100.00
2023-08-17T18:28:03.807Z,100.00
2023-08-17T18:30:09.501Z,100.00
2023-08-17T18:32:15.695Z,100.00
2023-08-17T18:34:22.400Z,100.00
2023-08-17T18:36:27.467Z,100.00
2023-08-17T18:38:34.881Z,100.00
2023-08-17T18:40:42.375Z,100.00
2023-08-17T18:42:47.519Z,100.00
2023-08-17T18:44:52.557Z,100.00
2023-08-17T18:46:57.522Z,100.00
2023-08-17T18:49:02.655Z,100.00
2023-08-17T18:51:07.823Z,100.00
2023-08-17T18:53:15.630Z,100.00
2023-08-17T18:55:20.661Z,100.00
2023-08-17T18:57:25.819Z,100.00
2023-08-17T18:59:42.187Z,100.00
2023-08-17T19:01:47.248Z,100.00
2023-08-17T19:03:52.270Z,100.00
2023-08-17T19:05:59.481Z,100.00
2023-08-17T19:08:04.603Z,100.00
2023-08-17T19:10:12.579Z,100.00
2023-08-17T19:12:22.342Z,100.00
2023-08-17T19:14:28.640Z,100.00
2023-08-17T19:16:35.154Z,100.00
2023-08-17T19:18:42.521Z,100.00
2023-08-17T19:20:49.384Z,100.00
2023-08-17T19:22:57.088Z,100.00
2023-08-17T19:25:03.493Z,100.00
2023-08-17T19:27:11.663Z,100.00
2023-08-17T19:29:16.654Z,100.00
2023-08-17T19:31:22.092Z,100.00
2023-08-17T19:33:27.199Z,100.00
2023-08-17T19:35:33.832Z,100.00
2023-08-17T19:37:41.915Z,100.00
2023-08-17T19:39:44.643Z,100.00
2023-08-17T19:41:50.056Z,100.00
2023-08-17T19:43:57.923Z,100.00
2023-08-17T19:46:04.562Z,100.00
2023-08-17T19:48:10.563Z,100.00
2023-08-17T19:50:17.637Z,100.00
2023-08-17T19:52:24.262Z,100.00
2023-08-17T19:54:30.564Z,100.00
2023-08-17T19:56:33.227Z,100.00
2023-08-17T19:58:38.550Z,100.00
2023-08-17T20:00:47.316Z,100.00
2023-08-17T20:02:52.526Z,100.00
2023-08-17T20:04:58.197Z,100.00
2023-08-17T20:07:04.521Z,100.00
2023-08-17T20:09:10.210Z,100.00
2023-08-17T20:11:13.890Z,100.00
2023-08-17T20:13:20.954Z,100.00
2023-08-17T20:15:26.157Z,100.00
2023-08-17T20:17:34.070Z,100.00
2023-08-17T20:19:40.891Z,100.00
2023-08-17T20:21:45.944Z,100.00
2023-08-17T20:23:51.127Z,100.00
2023-08-17T20:25:57.794Z,100.00
2023-08-17T20:28:03.578Z,100.00
2023-08-17T20:30:12.454Z,100.00
2023-08-17T20:32:20.431Z,100.00
2023-08-17T20:34:27.659Z,100.00
2023-08-17T20:36:34.866Z,100.00
2023-08-17T20:38:40.384Z,100.00
2023-08-17T20:40:46.249Z,100.00
2023-08-17T20:42:53.714Z,100.00
2023-08-17T20:44:58.681Z,100.00
2023-08-17T20:47:08.384Z,100.00
2023-08-17T20:49:13.756Z,100.00
2023-08-17T20:51:21.304Z,100.00
2023-08-17T20:53:28.119Z,100.00
2023-08-17T20:55:33.330Z,100.00
2023-08-17T20:57:38.597Z,100.00
2023-08-17T20:59:47.059Z,100.00
2023-08-17T21:01:52.890Z,100.00
2023-08-17T21:04:01.534Z,100.00
2023-08-17T21:06:07.083Z,100.00
2023-08-17T21:08:15.617Z,100.00
2023-08-17T21:10:20.719Z,100.00
2023-08-17T21:12:25.711Z,100.00
2023-08-17T21:14:30.603Z,100.00
2023-08-17T21:16:40.136Z,100.00
2023-08-17T21:18:45.906Z,100.00
2023-08-17T21:20:51.024Z,100.00
2023-08-17T21:22:57.888Z,100.00
2023-08-17T21:25:14.500Z,100.00
2023-08-17T21:27:20.715Z,100.00
2023-08-17T21:29:27.976Z,100.00
2023-08-17T21:31:34.937Z,100.00
2023-08-17T21:33:40.592Z,100.00
2023-08-17T21:35:45.677Z,100.00
2023-08-17T21:37:50.419Z,100.00
2023-08-17T21:39:52.868Z,100.00
2023-08-17T21:42:02.684Z,100.00
2023-08-17T21:44:10.629Z,100.00
2023-08-17T21:46:16.000Z,100.00
2023-08-17T21:48:21.049Z,100.00
2023-08-17T21:50:27.598Z,100.00
2023-08-17T21:52:32.389Z,100.00
2023-08-17T21:54:35.366Z,100.00
2023-08-17T21:56:40.453Z,100.00
2023-08-17T21:58:47.944Z,100.00
2023-08-17T22:00:53.037Z,100.00
2023-08-17T22:02:56.055Z,100.00
2023-08-17T22:05:01.164Z,100.00
2023-08-17T22:07:03.627Z,100.00
2023-08-17T22:09:08.776Z,100.00
2023-08-17T22:11:13.515Z,100.00
2023-08-17T22:13:18.626Z,100.00
2023-08-17T22:15:26.094Z,100.00
2023-08-17T22:17:31.412Z,100.00
2023-08-17T22:19:36.850Z,100.00
2023-08-17T22:21:41.919Z,100.00
2023-08-17T22:23:46.881Z,100.00
2023-08-17T22:25:51.849Z,100.00
2023-08-17T22:27:56.937Z,100.00
2023-08-17T22:29:59.458Z,100.00
2023-08-17T22:32:07.754Z,100.00
2023-08-17T22:34:13.432Z,100.00
2023-08-17T22:36:21.308Z,100.00
2023-08-17T22:38:26.044Z,100.00
2023-08-17T22:40:31.382Z,100.00
2023-08-17T22:42:36.743Z,100.00
2023-08-17T22:44:41.782Z,100.00
2023-08-17T22:46:48.191Z,100.00
2023-08-17T22:48:55.851Z,100.00
2023-08-17T22:50:58.270Z,100.00
2023-08-17T22:53:03.365Z,100.00
2023-08-17T22:55:10.449Z,100.00
2023-08-17T22:57:15.680Z,100.00
2023-08-17T22:59:21.246Z,100.00
2023-08-17T23:01:26.219Z,100.00
2023-08-17T23:03:30.997Z,100.00
2023-08-17T23:05:38.776Z,100.00
2023-08-17T23:07:43.992Z,100.00
2023-08-17T23:09:48.873Z,100.00
2023-08-17T23:11:54.466Z,100.00
2023-08-17T23:13:59.450Z,100.00
2023-08-17T23:16:04.982Z,100.00
2023-08-17T23:18:10.364Z,100.00
2023-08-17T23:20:16.051Z,100.00
2023-08-17T23:22:21.021Z,100.00
2023-08-17T23:24:25.812Z,100.00
2023-08-17T23:26:30.829Z,100.00
2023-08-17T23:28:35.192Z,100.00
2023-08-17T23:30:43.064Z,100.00
2023-08-17T23:32:48.170Z,100.00
2023-08-17T23:34:52.841Z,100.00
2023-08-17T23:36:58.028Z,100.00
2023-08-17T23:39:07.390Z,100.00
2023-08-17T23:41:12.554Z,100.00
2023-08-17T23:43:17.427Z,100.00
2023-08-17T23:45:22.943Z,100.00
2023-08-17T23:47:28.158Z,100.00
2023-08-17T23:49:33.413Z,100.00
2023-08-17T23:51:38.134Z,100.00
2023-08-17T23:53:43.218Z,100.00
2023-08-17T23:55:50.606Z,100.00
2023-08-17T23:57:55.584Z,100.00
